Time;durP1;ratioP1;P1;durP2;ratioP2;P2;SDS_P1;SDS_P2;PMS_P1;PMS_P2;Temp;Humidity;BMP_temperature;BMP_pressure;BME280_temperature;BME280_humidity;BME280_pressure;Samples;Min_cycle;Max_cycle;Signal;HPM_P1;HPM_P2
2022/06/20 00:00:27;;;;;;;8.25;5.28;;;25.10;80.00;;;25.53;100.00;99650.81;5046293;28;20506;-77
2022/06/20 00:02:58;;;;;;;12.55;5.65;;;25.20;80.30;;;25.33;100.00;99657.13;5045988;28;20049;-78
2022/06/20 00:05:32;;;;;;;13.55;5.50;;;25.10;80.30;;;25.43;100.00;99648.13;5030400;28;20053;-78
2022/06/20 00:07:59;;;;;;;14.82;6.53;;;25.10;80.30;;;25.17;100.00;99633.53;5014246;28;20045;-78
2022/06/20 00:10:28;;;;;;;11.18;5.38;;;25.00;81.10;;;25.33;100.00;99640.09;5026900;28;20048;-78
2022/06/20 00:12:57;;;;;;;14.48;6.22;;;25.00;81.10;;;25.19;100.00;99641.47;5010566;28;20049;-78
2022/06/20 00:15:32;;;;;;;10.23;5.22;;;25.00;82.50;;;25.13;100.00;99644.72;5011918;28;20038;-78
2022/06/20 00:18:04;;;;;;;9.57;5.68;;;24.90;82.60;;;25.04;100.00;99652.72;4995298;28;20080;-78
2022/06/20 00:20:40;;;;;;;14.88;5.95;;;24.90;83.80;;;25.08;100.00;99636.28;4997250;28;20061;-78
2022/06/20 00:23:07;;;;;;;11.98;5.65;;;24.80;83.30;;;25.16;100.00;99639.06;5048105;28;20068;-78
2022/06/20 00:25:36;;;;;;;9.50;4.90;;;24.80;83.70;;;24.92;100.00;99627.00;5031673;28;20049;-78
2022/06/20 00:28:05;;;;;;;14.30;6.32;;;24.80;85.10;;;24.82;100.00;99626.19;5014992;28;20056;-78
2022/06/20 00:30:32;;;;;;;9.90;5.65;;;24.70;85.50;;;24.84;100.00;99634.97;5012593;28;20060;-78
2022/06/20 00:32:59;;;;;;;11.68;5.65;;;24.60;85.70;;;24.90;100.00;99632.53;5009250;28;20222;-78
2022/06/20 00:35:26;;;;;;;11.23;5.68;;;24.60;85.80;;;24.78;100.00;99639.09;5009159;28;20048;-78
2022/06/20 00:37:57;;;;;;;10.95;5.28;;;24.60;86.80;;;24.60;100.00;99653.28;5008981;28;20046;-79
2022/06/20 00:40:45;;;;;;;10.00;5.80;;;24.60;87.20;;;24.78;100.00;99642.63;5007633;28;20054;-78
2022/06/20 00:43:45;;;;;;;10.60;5.38;;;24.60;86.60;;;24.84;100.00;99643.03;5008710;28;20718;-78
2022/06/20 00:46:32;;;;;;;10.95;5.88;;;24.50;86.70;;;24.75;100.00;99645.56;4973126;28;20057;-79
2022/06/20 00:49:20;;;;;;;11.13;5.47;;;24.50;87.40;;;24.61;100.00;99637.97;5008279;28;20116;-78
2022/06/20 00:51:50;;;;;;;11.45;5.25;;;24.40;87.80;;;24.49;100.00;99640.00;5019299;28;20555;-79
2022/06/20 00:54:43;;;;;;;10.50;6.00;;;24.40;88.10;;;24.42;100.00;99642.41;5011731;28;20056;-78
2022/06/20 00:57:30;;;;;;;9.80;5.40;;;24.30;88.40;;;24.30;100.00;99640.88;5031041;28;20045;-78
2022/06/20 01:00:18;;;;;;;11.77;5.55;;;24.30;89.00;;;24.41;100.00;99640.72;5027858;28;20487;-77
2022/06/20 01:03:21;;;;;;;14.60;5.35;;;24.20;88.80;;;24.45;100.00;99644.81;5029039;28;20044;-77
2022/06/20 01:06:08;;;;;;;10.80;5.75;;;24.20;88.90;;;24.41;100.00;99645.22;4985323;28;20053;-77
2022/06/20 01:08:47;;;;;;;19.60;6.80;;;24.10;88.90;;;24.25;100.00;99651.22;5028400;28;20426;-77
2022/06/20 01:11:25;;;;;;;12.88;7.30;;;24.10;89.70;;;24.21;100.00;99639.91;5043771;28;20041;-77
2022/06/20 01:13:53;;;;;;;11.48;5.82;;;24.00;90.00;;;24.21;100.00;99650.66;5043727;28;20133;-78
2022/06/20 01:16:39;;;;;;;11.70;5.53;;;24.00;90.10;;;24.05;100.00;99664.69;5028490;28;20039;-77
2022/06/20 01:19:09;;;;;;;12.85;6.03;;;24.00;90.80;;;24.09;100.00;99660.69;5012940;28;20458;-77
2022/06/20 01:21:36;;;;;;;16.80;6.65;;;23.90;90.60;;;24.03;100.00;99680.06;5019337;28;20049;-77
2022/06/20 01:24:03;;;;;;;13.63;7.10;;;23.80;91.00;;;23.90;100.00;99683.00;4991696;28;20053;-77
2022/06/20 01:26:42;;;;;;;16.05;6.18;;;23.90;91.20;;;23.90;100.00;99678.50;5008467;28;20452;-77
2022/06/20 01:29:15;;;;;;;14.47;6.40;;;23.80;91.30;;;23.94;100.00;99666.47;5009558;28;20058;-77
2022/06/20 01:31:51;;;;;;;16.10;6.05;;;23.70;91.40;;;23.86;100.00;99665.47;5008529;28;20065;-77
2022/06/20 01:34:19;;;;;;;13.38;6.20;;;23.60;91.60;;;23.91;100.00;99653.31;5009004;28;20050;-77
2022/06/20 01:39:40;;;;;;;8.50;5.90;;;23.70;91.30;;;24.23;100.00;99672.84;5013025;28;20042;-77
2022/06/20 01:42:19;;;;;;;11.25;5.55;;;23.80;91.40;;;24.23;100.00;99675.53;5009660;28;20152;-77
2022/06/20 01:45:01;;;;;;;12.82;6.40;;;23.80;91.50;;;24.07;100.00;99676.94;4995175;28;20058;-77
2022/06/20 01:47:29;;;;;;;14.70;7.05;;;23.90;91.50;;;23.88;100.00;99677.78;5009186;28;20046;-77
2022/06/20 01:50:02;;;;;;;12.40;6.63;;;23.80;91.60;;;23.78;100.00;99687.66;5008858;28;20054;-77
2022/06/20 01:52:41;;;;;;;14.38;6.90;;;23.70;91.60;;;23.68;100.00;99690.34;5027009;28;20447;-77
2022/06/20 01:55:17;;;;;;;8.57;5.85;;;23.60;91.70;;;23.73;100.00;99689.94;5011549;28;20049;-78
2022/06/20 01:57:49;;;;;;;15.25;5.90;;;23.50;91.80;;;23.62;100.00;99702.47;5011129;28;20052;-77
2022/06/20 02:00:23;;;;;;;8.95;5.93;;;23.40;91.80;;;23.80;100.00;99717.91;5011082;28;20048;-77
2022/06/20 02:02:56;;;;;;;10.48;5.32;;;23.40;92.20;;;24.06;100.00;99722.78;5027521;28;20495;-77
2022/06/20 02:05:27;;;;;;;10.88;5.30;;;23.50;92.10;;;24.00;100.00;99716.09;5027817;28;20510;-77
2022/06/20 02:08:00;;;;;;;11.25;6.15;;;23.60;92.00;;;24.00;100.00;99709.88;5027707;28;20469;-78
2022/06/20 02:10:53;;;;;;;11.40;5.65;;;23.60;91.80;;;24.08;100.00;99758.44;5011452;28;20529;-77
2022/06/20 02:13:24;;;;;;;14.27;5.57;;;23.90;92.00;;;23.68;100.00;99745.88;5012914;28;20145;-77
2022/06/20 02:15:57;;;;;;;8.02;4.32;;;23.60;91.90;;;23.54;100.00;99733.69;4980584;28;20050;-77
2022/06/20 02:18:29;;;;;;;16.10;5.47;;;23.30;91.70;;;23.56;100.00;99731.69;4997466;28;20132;-77
2022/06/20 02:21:05;;;;;;;12.27;4.70;;;23.40;91.60;;;23.48;100.00;99762.75;4998916;28;20056;-77
2022/06/20 02:23:39;;;;;;;13.00;4.43;;;23.40;91.40;;;23.47;100.00;99771.78;5000093;28;20058;-76
2022/06/20 02:26:09;;;;;;;11.40;5.40;;;23.30;91.40;;;23.33;100.00;99780.19;4999975;28;20050;-76
2022/06/20 02:28:56;;;;;;;14.48;4.03;;;23.20;91.40;;;23.20;100.00;99804.53;5015602;28;20038;-77
2022/06/20 02:31:26;;;;;;;11.38;4.55;;;23.10;91.10;;;23.35;100.00;99805.94;5016591;28;20413;-77
2022/06/20 02:33:56;;;;;;;9.63;4.20;;;23.10;91.10;;;23.29;100.00;99801.09;5014923;28;20135;-79
2022/06/20 02:36:24;;;;;;;11.20;4.13;;;23.10;90.90;;;23.26;100.00;99795.13;5032992;28;20395;-77
2022/06/20 02:38:52;;;;;;;11.57;4.20;;;23.00;91.00;;;23.18;100.00;99802.00;5030978;28;20053;-76
2022/06/20 02:41:23;;;;;;;10.82;4.15;;;23.00;91.10;;;23.13;100.00;99796.19;5030584;28;20045;-76
2022/06/20 02:44:06;;;;;;;8.32;4.60;;;22.90;91.30;;;23.08;100.00;99796.56;5027197;28;20050;-76
2022/06/20 02:46:33;;;;;;;11.63;4.28;;;22.90;91.50;;;23.18;100.00;99790.41;5010807;28;20121;-77
2022/06/20 02:49:04;;;;;;;12.82;4.97;;;22.80;91.70;;;23.14;100.00;99794.34;5009740;28;20050;-77
2022/06/20 02:51:38;;;;;;;10.15;4.32;;;22.90;91.70;;;23.09;100.00;99784.84;5030872;28;20049;-77
2022/06/20 02:54:10;;;;;;;8.25;4.57;;;22.80;91.70;;;23.07;100.00;99804.75;5026728;28;20042;-77
2022/06/20 02:56:43;;;;;;;11.55;5.38;;;22.80;91.80;;;23.02;100.00;99806.97;5026339;28;20042;-76
2022/06/20 02:59:27;;;;;;;10.00;4.38;;;22.70;91.70;;;22.88;100.00;99814.38;5026141;28;20050;-77
2022/06/20 03:02:12;;;;;;;12.23;4.57;;;22.80;91.60;;;22.96;100.00;99800.31;5040688;28;20052;-77
2022/06/20 03:04:44;;;;;;;22.23;4.68;;;22.80;91.30;;;22.81;100.00;99810.50;5025034;28;20069;-76
2022/06/20 03:07:22;;;;;;;11.73;3.72;;;22.70;90.90;;;22.61;100.00;99796.97;5026471;28;20060;-77
2022/06/20 03:10:01;;;;;;;14.00;3.97;;;22.60;90.80;;;22.57;100.00;99816.09;5040714;28;20050;-77
2022/06/20 03:12:30;;;;;;;11.50;4.40;;;22.50;91.00;;;22.61;100.00;99830.94;5041589;28;20049;-77
2022/06/20 03:15:00;;;;;;;12.60;3.95;;;22.40;91.00;;;22.64;100.00;99830.72;5026718;28;20050;-77
2022/06/20 03:17:28;;;;;;;10.40;2.95;;;22.40;90.90;;;22.63;100.00;99843.25;5026688;28;20041;-77
2022/06/20 03:19:59;;;;;;;12.88;3.65;;;22.40;91.10;;;22.46;100.00;99833.88;5043312;28;20506;-77
2022/06/20 03:23:08;;;;;;;14.75;3.38;;;22.40;90.90;;;22.35;100.00;99844.66;5029915;28;20046;-76
2022/06/20 03:25:38;;;;;;;6.30;2.70;;;22.20;91.00;;;22.35;100.00;99839.31;5008911;28;20136;-76
2022/06/20 03:28:13;;;;;;;9.02;4.20;;;22.10;91.30;;;22.44;100.00;99851.94;5030486;28;20041;-77
2022/06/20 03:31:01;;;;;;;9.20;3.28;;;22.20;91.20;;;22.39;100.00;99856.84;5016066;28;20053;-76
2022/06/20 03:33:29;;;;;;;10.27;4.22;;;22.20;91.20;;;22.22;100.00;99845.66;5029690;28;20041;-76
2022/06/20 03:36:10;;;;;;;13.45;4.15;;;22.10;91.30;;;22.30;100.00;99847.72;5030287;28;20537;-77
2022/06/20 03:38:40;;;;;;;13.15;3.67;;;22.20;91.40;;;22.34;100.00;99840.28;5015415;28;20053;-77
2022/06/20 03:41:10;;;;;;;19.05;4.30;;;22.10;91.40;;;22.29;100.00;99842.47;5013272;28;20049;-76
2022/06/20 03:43:39;;;;;;;11.40;3.93;;;22.00;91.50;;;22.20;100.00;99842.25;5014148;28;20037;-76
2022/06/20 03:46:19;;;;;;;11.18;3.25;;;22.10;91.50;;;22.07;100.00;99838.88;5014725;28;20399;-77
2022/06/20 03:49:04;;;;;;;12.27;3.25;;;22.00;91.60;;;22.13;100.00;99853.59;5030630;28;20049;-77
2022/06/20 03:51:46;;;;;;;8.23;3.15;;;21.90;91.80;;;22.07;100.00;99853.09;5016193;28;20057;-77
2022/06/20 03:54:52;;;;;;;12.18;5.18;;;21.90;91.90;;;22.22;100.00;99839.44;5009964;28;20061;-77
2022/06/20 03:57:34;;;;;;;10.77;4.15;;;21.90;92.10;;;22.14;100.00;99824.00;5027382;28;20057;-77
2022/06/20 04:00:13;;;;;;;10.32;4.00;;;21.90;92.00;;;22.10;100.00;99811.84;5025796;28;20622;-77
2022/06/20 04:03:11;;;;;;;10.85;3.20;;;21.90;92.20;;;22.14;100.00;99813.28;5026098;28;20403;-76
2022/06/20 04:06:37;;;;;;;11.75;3.63;;;21.90;92.10;;;22.34;100.00;99800.09;5030619;28;20041;-75
2022/06/20 04:12:10;;;;;;;7.35;2.83;;;21.90;92.00;;;22.26;100.00;99799.84;5023925;28;20136;-77
2022/06/20 04:14:49;;;;;;;8.02;3.15;;;22.00;92.00;;;22.29;100.00;99803.16;5003179;28;20057;-77
2022/06/20 04:20:44;;;;;;;8.90;2.70;;;22.00;91.80;;;22.28;100.00;99830.06;5028194;28;20049;-76
2022/06/20 04:23:47;;;;;;;9.95;3.00;;;22.00;91.60;;;22.33;100.00;99835.91;5028434;28;20048;-77
2022/06/20 04:26:31;;;;;;;7.80;3.55;;;22.00;91.50;;;22.24;100.00;99813.38;5036988;28;20204;-78
2022/06/20 04:29:22;;;;;;;7.53;3.38;;;22.00;91.40;;;22.27;100.00;99812.28;5026599;28;20052;-79
2022/06/20 04:32:04;;;;;;;11.20;3.70;;;22.00;91.30;;;22.37;100.00;99819.44;5026334;28;20048;-76
2022/06/20 04:34:49;;;;;;;7.85;3.63;;;22.00;91.30;;;22.32;100.00;99810.94;5009042;28;20042;-78
2022/06/20 04:37:36;;;;;;;8.40;3.38;;;22.00;91.20;;;22.34;100.00;99803.59;5005948;28;20156;-79
2022/06/20 04:40:27;;;;;;;10.55;3.80;;;22.00;91.20;;;22.44;100.00;99816.25;5021565;28;20447;-79
2022/06/20 04:43:02;;;;;;;10.13;3.42;;;22.00;91.10;;;22.39;100.00;99812.09;5010247;28;20045;-80
2022/06/20 04:45:40;;;;;;;7.13;3.28;;;22.10;91.20;;;22.47;100.00;99821.34;5022388;28;20069;-78
2022/06/20 04:48:14;;;;;;;8.15;3.53;;;22.10;91.00;;;22.48;100.00;99832.00;5018720;28;20410;-75
2022/06/20 04:51:06;;;;;;;9.02;2.75;;;22.10;91.10;;;22.43;100.00;99839.50;4992918;28;20038;-74
2022/06/20 04:53:39;;;;;;;8.25;3.35;;;22.20;91.20;;;22.57;100.00;99846.47;5023684;28;20048;-74
2022/06/20 04:56:12;;;;;;;5.22;2.65;;;22.20;91.10;;;22.59;100.00;99863.25;5029225;28;20430;-74
2022/06/20 04:59:00;;;;;;;11.88;3.33;;;22.20;91.10;;;22.66;100.00;99860.94;5015002;28;20119;-74
2022/06/20 05:01:34;;;;;;;7.50;3.33;;;22.20;91.00;;;22.57;100.00;99875.94;5028977;28;20049;-74
2022/06/20 05:04:32;;;;;;;10.15;3.72;;;22.20;91.20;;;22.58;100.00;99880.34;5029411;28;20053;-75
2022/06/20 05:07:26;;;;;;;8.30;3.25;;;22.30;90.80;;;22.57;100.00;99875.94;5028318;28;20050;-76
2022/06/20 05:10:18;;;;;;;8.18;3.38;;;22.30;90.60;;;22.65;100.00;99886.88;5011468;28;20049;-77
2022/06/20 05:12:53;;;;;;;8.40;3.22;;;22.30;90.50;;;22.72;100.00;99881.03;5023955;28;20051;-77
2022/06/20 05:15:42;;;;;;;6.13;3.03;;;22.30;90.50;;;22.73;100.00;99877.34;5010292;28;20048;-76
2022/06/20 05:18:35;;;;;;;9.65;3.25;;;22.30;90.80;;;22.82;100.00;99889.97;5030221;28;20052;-77
2022/06/20 05:21:19;;;;;;;16.40;3.97;;;22.40;90.60;;;22.79;100.00;99893.78;5026794;28;20073;-76
2022/06/20 05:23:55;;;;;;;6.05;3.20;;;22.50;90.80;;;22.85;100.00;99897.75;5028081;28;20033;-75
2022/06/20 05:26:29;;;;;;;8.27;3.25;;;22.50;90.50;;;22.80;100.00;99906.22;5029907;28;20045;-76
2022/06/20 05:29:01;;;;;;;7.88;3.20;;;22.50;90.50;;;22.82;100.00;99897.19;5006730;28;20038;-77
2022/06/20 05:31:42;;;;;;;12.63;3.55;;;22.50;90.50;;;22.89;100.00;99901.91;5006216;28;20046;-77
2022/06/20 05:34:09;;;;;;;10.15;3.17;;;22.50;90.40;;;22.94;100.00;99909.56;5007134;28;20069;-77
2022/06/20 05:37:05;;;;;;;10.27;3.42;;;22.60;90.40;;;23.04;100.00;99920.38;5007399;28;20038;-78
2022/06/20 05:40:10;;;;;;;9.63;3.20;;;22.60;90.30;;;23.02;100.00;99911.59;5006372;28;20617;-77
2022/06/20 05:42:37;;;;;;;9.18;3.30;;;22.60;90.20;;;22.95;100.00;99930.06;5006453;28;20056;-77
2022/06/20 05:45:27;;;;;;;6.95;3.00;;;22.60;90.20;;;22.92;100.00;99927.59;5007128;28;20056;-77
2022/06/20 05:47:59;;;;;;;10.93;3.63;;;22.60;90.20;;;23.12;100.00;99935.84;5009090;28;20430;-77
2022/06/20 05:50:29;;;;;;;8.32;3.40;;;22.70;90.30;;;23.19;100.00;99935.19;5011162;28;20049;-77
2022/06/20 05:52:58;;;;;;;15.70;4.70;;;22.80;90.40;;;23.19;100.00;99953.13;5010655;28;20045;-74
2022/06/20 05:55:37;;;;;;;8.68;3.42;;;22.80;90.20;;;23.21;100.00;99957.38;5010927;28;20652;-74
2022/06/20 05:58:08;;;;;;;6.35;3.42;;;22.80;90.20;;;23.28;100.00;99952.38;5016582;28;20053;-75
2022/06/20 06:00:37;;;;;;;9.07;3.05;;;22.90;90.30;;;23.32;100.00;99942.22;5029785;28;20041;-75
2022/06/20 06:03:23;;;;;;;10.05;3.90;;;22.90;90.00;;;23.09;100.00;99940.47;5029666;28;20136;-74
2022/06/20 06:06:01;;;;;;;7.22;3.97;;;22.90;89.80;;;23.23;100.00;99939.31;5029810;28;20064;-74
2022/06/20 06:08:47;;;;;;;12.18;4.88;;;22.90;90.30;;;23.22;100.00;99937.63;5030213;28;20053;-74
2022/06/20 06:11:35;;;;;;;9.70;3.53;;;23.00;90.60;;;23.20;100.00;99936.91;5030197;28;20490;-75
2022/06/20 06:14:35;;;;;;;7.63;3.30;;;22.90;90.80;;;23.26;100.00;99948.97;5029904;28;20048;-75
2022/06/20 06:17:33;;;;;;;12.00;3.15;;;22.90;90.90;;;23.30;100.00;99954.91;5029054;28;20615;-74
2022/06/20 06:20:31;;;;;;;9.15;3.80;;;22.90;91.00;;;23.19;100.00;99974.59;5029380;28;20154;-74
2022/06/20 06:23:04;;;;;;;11.65;3.17;;;22.90;91.00;;;23.15;100.00;99986.56;5046230;28;20654;-75
2022/06/20 06:25:34;;;;;;;10.63;3.83;;;22.90;91.00;;;;;;5029951;28;20116;-75
2022/06/20 06:28:22;;;;;;;;;;;22.90;90.90;;;22.94;100.00;99995.38;5030538;28;20103;-74
2022/06/20 06:31:18;;;;;;;12.52;3.53;;;22.80;90.70;;;22.92;100.00;100008.94;5029372;28;19932;-75
2022/06/20 06:34:05;;;;;;;12.98;4.43;;;22.70;90.70;;;22.86;100.00;100013.94;5014193;28;20053;-74
2022/06/20 06:36:45;;;;;;;10.38;3.53;;;22.60;90.80;;;22.94;100.00;100006.97;5030281;28;20414;-74
2022/06/20 06:39:17;;;;;;;9.70;4.60;;;22.60;91.00;;;23.02;100.00;100021.56;5029362;28;20041;-74
2022/06/20 06:41:50;;;;;;;7.97;3.60;;;22.60;90.90;;;22.97;100.00;100010.38;5030925;28;20132;-74
2022/06/20 06:44:40;;;;;;;6.93;3.03;;;22.60;90.90;;;22.97;100.00;100021.97;5029298;28;20045;-75
2022/06/20 06:47:34;;;;;;;10.05;3.67;;;22.60;90.80;;;22.94;100.00;100033.81;5029347;28;20132;-74
2022/06/20 06:50:22;;;;;;;11.95;3.17;;;22.70;90.90;;;22.94;100.00;100025.75;5045291;28;20466;-75
2022/06/20 06:53:05;;;;;;;10.85;2.78;;;22.60;91.00;;;22.93;100.00;100028.56;5029608;28;20046;-75
2022/06/20 06:55:38;;;;;;;8.75;3.92;;;22.70;90.80;;;22.96;100.00;100025.66;4998364;28;20049;-74
2022/06/20 06:58:34;;;;;;;11.73;3.13;;;22.70;90.80;;;23.05;100.00;100026.72;4993984;28;20106;-74
2022/06/20 07:01:16;;;;;;;7.75;3.28;;;22.70;90.80;;;23.10;100.00;100021.81;4995613;28;20483;-75
2022/06/20 07:04:32;;;;;;;11.70;3.97;;;22.70;90.80;;;23.27;100.00;100025.81;5009357;28;20057;-74
2022/06/20 07:07:17;;;;;;;12.55;3.65;;;22.80;90.80;;;23.42;100.00;100041.63;4968759;28;20070;-75
2022/06/20 07:09:53;;;;;;;10.88;3.20;;;22.90;90.70;;;23.39;100.00;100041.88;4952564;28;20051;-74
2022/06/20 07:12:26;;;;;;;14.63;3.47;;;23.00;90.40;;;23.53;100.00;100038.03;4992404;28;20552;-74
2022/06/20 07:15:16;;;;;;;6.72;3.05;;;23.00;90.20;;;23.53;100.00;100032.66;4975667;28;20530;-74
2022/06/20 07:17:58;;;;;;;8.20;3.88;;;23.10;90.40;;;23.58;100.00;100030.44;4992164;28;20054;-75
2022/06/20 07:20:43;;;;;;;7.30;3.30;;;23.20;90.00;;;23.72;100.00;100032.81;4976809;28;20469;-74
2022/06/20 07:23:14;;;;;;;10.25;3.88;;;23.20;89.90;;;23.76;100.00;100036.09;4968344;28;20070;-74
2022/06/20 07:25:48;;;;;;;9.52;3.03;;;23.30;89.80;;;23.87;100.00;100027.94;4969133;28;20138;-76
2022/06/20 07:28:50;;;;;;;10.18;3.38;;;23.40;89.50;;;24.13;100.00;100030.25;4968917;28;20043;-76
2022/06/20 07:31:28;;;;;;;10.70;3.63;;;23.50;89.40;;;24.18;100.00;100011.88;4956374;28;20047;-76
2022/06/20 07:34:18;;;;;;;10.60;4.15;;;23.60;89.00;;;24.44;99.32;100002.53;4968523;28;20074;-75
2022/06/20 07:36:56;;;;;;;9.45;4.57;;;23.80;88.60;;;24.58;95.62;99990.53;4956804;28;20050;-76
2022/06/20 07:39:51;;;;;;;12.02;4.13;;;23.90;87.80;;;24.41;93.85;100010.84;4992991;28;20160;-75
2022/06/20 07:42:36;;;;;;;10.30;3.30;;;24.00;86.70;;;24.48;95.60;99995.91;5008791;28;20052;-76
2022/06/20 07:45:27;;;;;;;7.15;3.10;;;24.00;86.70;;;24.63;97.07;99999.91;5009172;28;20384;-75
2022/06/20 07:48:02;;;;;;;11.75;3.55;;;24.10;87.50;;;24.66;96.04;99996.06;5009719;28;20073;-76
2022/06/20 07:50:39;;;;;;;10.07;3.25;;;24.20;87.00;;;24.74;99.39;100011.50;5008879;28;20490;-76
2022/06/20 07:53:23;;;;;;;10.25;4.10;;;24.30;87.70;;;24.86;96.19;100013.13;5024454;28;20041;-75
2022/06/20 07:56:00;;;;;;;11.18;3.72;;;24.40;87.10;;;24.76;94.97;100021.19;5009660;28;20054;-75
2022/06/20 07:58:35;;;;;;;13.82;3.40;;;24.50;86.40;;;24.99;95.06;100014.72;5023864;28;20041;-74
2022/06/20 08:01:26;;;;;;;12.35;3.75;;;24.50;86.70;;;25.11;93.11;100010.91;5023858;28;20049;-75
2022/06/20 08:04:03;;;;;;;11.27;3.60;;;24.60;86.20;;;25.06;88.13;99991.66;5007985;28;20141;-74
2022/06/20 08:06:54;;;;;;;8.88;3.30;;;24.70;84.80;;;25.30;89.05;99990.38;5028629;28;20043;-74
2022/06/20 08:09:42;;;;;;;7.90;3.60;;;24.80;85.20;;;25.24;88.11;99991.78;5030401;28;20040;-76
2022/06/20 08:12:57;;;;;;;10.35;3.63;;;24.80;84.40;;;25.21;88.57;99994.78;5024535;28;20045;-76
2022/06/20 08:15:51;;;;;;;10.27;3.60;;;24.80;84.70;;;25.23;88.10;99968.56;5029102;28;20108;-76
2022/06/20 08:18:18;;;;;;;13.10;4.07;;;24.80;84.40;;;25.26;89.80;100002.44;5031461;28;20127;-76
2022/06/20 08:20:57;;;;;;;9.77;3.40;;;24.90;84.70;;;25.29;91.86;99997.63;5028752;28;20053;-76
2022/06/20 08:23:45;;;;;;;7.43;3.90;;;24.90;85.20;;;25.26;92.99;100003.25;5043618;28;20080;-76
2022/06/20 08:26:23;;;;;;;7.68;3.35;;;25.00;85.50;;;25.27;94.36;99982.59;5042977;28;20046;-75
2022/06/20 08:29:01;;;;;;;8.80;3.70;;;24.90;85.50;;;25.30;91.41;99974.22;5043957;28;20045;-75
2022/06/20 08:31:31;;;;;;;9.70;3.42;;;25.00;84.90;;;25.33;87.36;99976.63;5043119;28;20044;-76
2022/06/20 08:34:18;;;;;;;10.52;4.07;;;25.00;84.00;;;25.41;87.30;99984.84;5027399;28;20518;-75
2022/06/20 08:36:45;;;;;;;13.23;5.05;;;25.00;84.10;;;25.49;86.65;99994.94;5043369;28;20129;-76
2022/06/20 08:39:33;;;;;;;9.88;3.47;;;25.10;84.10;;;25.53;86.11;99998.22;5018150;28;20050;-75
2022/06/20 08:42:23;;;;;;;9.20;4.35;;;25.10;83.80;;;25.73;87.27;100001.69;5008667;28;20049;-76
2022/06/20 08:45:09;;;;;;;13.98;4.30;;;25.20;84.20;;;25.65;86.39;100028.53;5024335;28;20060;-76
2022/06/20 08:47:54;;;;;;;10.32;3.50;;;25.30;83.60;;;25.70;88.77;100035.19;5007728;28;20145;-76
2022/06/20 08:50:49;;;;;;;9.25;4.05;;;25.30;84.00;;;25.53;87.00;100020.59;5007509;28;20054;-76
2022/06/20 08:54:05;;;;;;;11.40;4.18;;;25.30;83.30;;;25.73;87.50;100021.41;5007493;28;20056;-76
2022/06/20 08:56:56;;;;;;;8.98;4.15;;;25.30;83.90;;;25.69;89.46;100028.09;5007470;28;20604;-76
2022/06/20 08:59:55;;;;;;;12.27;4.78;;;25.30;83.80;;;25.59;86.58;100021.88;5009696;28;20333;-76
2022/06/20 09:03:01;;;;;;;9.25;3.95;;;25.30;83.10;;;25.49;91.69;100038.88;5008673;28;20042;-76
2022/06/20 09:06:02;;;;;;;8.95;3.75;;;25.20;83.90;;;25.54;89.89;100027.66;5007597;28;20352;-76
2022/06/20 09:08:41;;;;;;;11.23;3.60;;;25.20;83.90;;;25.31;93.60;100040.53;4993289;28;20050;-76
2022/06/20 09:11:45;;;;;;;8.40;3.85;;;25.20;84.10;;;25.47;95.12;100043.50;5007490;28;20085;-75
2022/06/20 09:14:46;;;;;;;10.63;3.70;;;25.10;84.70;;;25.28;93.88;100060.50;5007553;28;20161;-75
2022/06/20 09:17:49;;;;;;;11.10;4.28;;;25.20;84.30;;;25.39;94.94;100066.75;5007394;28;20054;-77
2022/06/20 09:20:57;;;;;;;12.85;4.65;;;25.10;84.60;;;25.48;93.96;100066.78;5007443;28;20128;-77
2022/06/20 09:23:49;;;;;;;8.98;4.18;;;25.20;84.60;;;25.70;89.39;100063.94;5018044;28;20081;-77
2022/06/20 09:26:45;;;;;;;9.05;4.40;;;25.20;83.90;;;25.79;87.00;100060.41;5027232;28;20041;-77
2022/06/20 09:29:50;;;;;;;9.38;4.10;;;25.40;83.50;;;25.78;90.62;100061.41;5027058;28;20045;-78
2022/06/20 09:33:10;;;;;;;6.93;3.53;;;25.40;83.80;;;25.76;91.34;100068.78;5027059;28;20133;-77
2022/06/20 09:36:22;;;;;;;12.18;3.90;;;25.40;83.90;;;26.00;92.15;100070.16;5028058;28;20057;-76
2022/06/20 09:39:14;;;;;;;10.40;4.05;;;25.50;84.20;;;26.02;89.42;100074.41;5012407;28;20056;-77
2022/06/20 09:42:17;;;;;;;12.82;4.75;;;25.60;84.00;;;26.15;92.62;100078.66;5026863;28;20163;-76
2022/06/20 09:45:15;;;;;;;13.10;5.68;;;25.70;84.70;;;26.02;93.28;100079.81;5026713;28;20209;-76
2022/06/20 09:48:18;;;;;;;13.43;4.70;;;25.70;84.60;;;26.28;92.15;100084.59;5027595;28;20100;-77
2022/06/20 09:51:12;;;;;;;10.68;3.60;;;25.80;84.70;;;26.29;87.80;100097.06;5011638;28;20080;-76
2022/06/20 09:53:48;;;;;;;16.23;4.68;;;25.90;83.60;;;26.44;86.17;100091.22;5024967;28;20144;-77
2022/06/20 09:56:50;;;;;;;11.80;4.00;;;25.90;83.40;;;26.52;89.06;100090.47;5028051;28;20049;-76
2022/06/20 09:59:42;;;;;;;13.20;3.97;;;26.10;84.10;;;26.68;87.80;100106.03;5026317;28;20053;-76
2022/06/20 10:02:47;;;;;;;11.93;3.95;;;26.20;83.90;;;26.73;89.04;100112.69;5026923;28;20056;-77
2022/06/20 10:05:57;;;;;;;11.30;3.90;;;26.30;83.90;;;26.89;88.91;100111.22;4997999;28;20061;-77
2022/06/20 10:09:00;;;;;;;9.82;3.38;;;26.40;84.20;;;26.79;86.97;100102.28;5010920;28;20049;-77
2022/06/20 10:11:53;;;;;;;8.98;3.83;;;26.40;83.30;;;26.84;88.77;100103.53;5010146;28;20072;-77
2022/06/20 10:15:00;;;;;;;12.32;4.07;;;26.50;83.80;;;26.98;88.01;100094.13;5011870;28;20049;-77
2022/06/20 10:17:43;;;;;;;7.13;3.63;;;26.50;83.90;;;26.88;85.90;100091.47;5027548;28;20045;-76
2022/06/20 10:20:22;;;;;;;8.70;3.58;;;26.50;83.00;;;26.77;83.63;100080.84;5026323;28;20052;-76
2022/06/20 10:23:06;;;;;;;12.83;4.00;;;26.50;82.20;;;26.85;84.10;100064.75;5028211;28;20041;-77
2022/06/20 10:25:54;;;;;;;8.30;3.28;;;26.50;82.50;;;27.02;87.38;100065.84;5011803;28;20049;-76
2022/06/20 10:28:38;;;;;;;10.43;3.72;;;26.60;83.50;;;26.80;87.72;100077.88;5028016;28;20495;-76
2022/06/20 10:31:33;;;;;;;13.68;4.05;;;26.50;82.90;;;26.73;89.93;100074.06;5010686;28;20141;-76
2022/06/20 10:34:42;;;;;;;12.00;3.75;;;26.50;83.40;;;26.95;89.17;100089.03;5013728;28;20045;-76
2022/06/20 10:38:12;;;;;;;9.02;3.80;;;26.50;83.70;;;27.07;88.82;100111.25;5014944;28;20041;-76
2022/06/20 10:40:56;;;;;;;5.95;3.42;;;26.60;83.80;;;27.26;89.45;100104.06;5027535;28;20128;-76
2022/06/20 10:43:43;;;;;;;10.32;3.85;;;26.70;84.00;;;27.58;86.15;100098.16;5029374;28;20057;-76
2022/06/20 10:46:55;;;;;;;6.53;3.35;;;26.80;84.00;;;27.48;87.63;100113.56;5011266;28;20041;-77
2022/06/20 10:49:32;;;;;;;9.45;3.83;;;27.00;83.70;;;27.49;87.19;100109.00;4983281;28;20077;-76
2022/06/20 10:52:45;;;;;;;6.43;3.42;;;27.10;83.40;;;27.46;90.17;100124.53;5038062;28;20034;-77
2022/06/20 10:55:31;;;;;;;9.98;3.92;;;27.10;83.70;;;27.19;93.06;100133.53;5014369;28;20056;-76
2022/06/20 10:58:34;;;;;;;7.20;3.58;;;27.00;84.10;;;27.07;93.43;100134.72;5028951;28;20049;-75
2022/06/20 11:01:19;;;;;;;9.40;3.90;;;26.90;84.30;;;27.22;93.57;100138.63;5028808;28;20077;-76
2022/06/20 11:04:18;;;;;;;5.80;3.10;;;26.90;84.40;;;27.36;93.23;100139.94;5029246;28;20136;-77
2022/06/20 11:07:16;;;;;;;8.25;2.90;;;26.90;84.70;;;27.26;93.20;100145.41;5010103;28;20045;-77
2022/06/20 11:10:06;;;;;;;5.32;3.05;;;27.00;84.30;;;27.28;92.78;100143.41;5010262;28;20041;-77
2022/06/20 11:12:59;;;;;;;8.10;3.10;;;27.00;84.30;;;27.33;91.93;100151.06;5012511;28;20103;-76
2022/06/20 11:15:55;;;;;;;6.60;2.92;;;27.00;84.20;;;27.54;92.29;100148.09;5036353;28;20048;-75
2022/06/20 11:18:53;;;;;;;6.40;2.80;;;27.00;84.50;;;27.79;89.41;100161.88;5014144;28;20099;-76
2022/06/20 11:22:12;;;;;;;6.28;3.10;;;27.20;84.10;;;27.71;88.24;100168.03;5045478;28;20049;-76
2022/06/20 11:25:09;;;;;;;13.73;3.42;;;27.30;83.60;;;27.39;88.33;100185.53;5011393;28;20049;-76
2022/06/20 11:27:51;;;;;;;5.70;2.78;;;27.30;82.90;;;27.31;90.39;100186.28;5028559;28;20038;-77